createdAt,value
2018-11-07T00:00:19.346Z,11.17
2018-11-07T00:03:23.572Z,10.23
2018-11-07T00:06:27.677Z,12.27
2018-11-07T00:09:31.769Z,11.27
2018-11-07T00:12:35.821Z,14.73
2018-11-07T00:15:39.701Z,14.27
2018-11-07T00:18:43.663Z,15.33
2018-11-07T00:21:47.944Z,17.20
2018-11-07T00:24:51.874Z,15.87
2018-11-07T00:27:55.904Z,17.23
2018-11-07T00:30:59.837Z,16.43
2018-11-07T00:34:04.019Z,16.10
2018-11-07T00:37:07.981Z,18.57
2018-11-07T00:40:12.704Z,20.37
2018-11-07T00:43:16.621Z,19.27
2018-11-07T00:46:20.542Z,21.57
2018-11-07T00:49:24.516Z,20.83
2018-11-07T00:52:28.864Z,20.80
2018-11-07T00:55:32.753Z,26.83
2018-11-07T00:58:36.881Z,28.43
2018-11-07T01:01:40.891Z,25.20
2018-11-07T01:04:44.889Z,31.80
2018-11-07T01:07:49.202Z,24.40
2018-11-07T01:10:53.271Z,25.17
2018-11-07T01:13:58.398Z,28.27
2018-11-07T01:17:02.503Z,23.37
2018-11-07T01:20:07.812Z,20.67
2018-11-07T01:23:11.738Z,28.20
2018-11-07T01:26:16.067Z,25.27
2018-11-07T01:29:20.092Z,29.50
2018-11-07T01:32:24.301Z,26.17
2018-11-07T01:35:28.256Z,24.30
2018-11-07T01:38:32.426Z,24.57
2018-11-07T01:41:36.556Z,20.53
2018-11-07T01:44:40.772Z,15.67
2018-11-07T01:47:44.761Z,22.73
2018-11-07T01:50:48.699Z,17.73
2018-11-07T01:53:52.782Z,22.40
2018-11-07T01:56:56.742Z,21.77
2018-11-07T02:00:00.734Z,22.00
2018-11-07T02:03:04.806Z,22.20
2018-11-07T02:06:08.879Z,21.30
2018-11-07T02:09:12.839Z,28.27
2018-11-07T02:12:16.889Z,22.63
2018-11-07T02:15:20.944Z,27.90
2018-11-07T02:18:25.042Z,27.40
2018-11-07T02:21:29.089Z,23.60
2018-11-07T02:24:33.077Z,24.53
2018-11-07T02:27:37.090Z,26.37
2018-11-07T02:30:41.207Z,24.93
2018-11-07T02:33:45.140Z,23.73
2018-11-07T02:36:49.244Z,24.33
2018-11-07T02:39:53.365Z,24.00
2018-11-07T02:42:57.333Z,22.77
2018-11-07T02:46:01.348Z,26.60
2018-11-07T02:49:05.574Z,25.67
2018-11-07T02:52:09.481Z,25.30
2018-11-07T02:55:13.496Z,26.93
2018-11-07T02:58:17.554Z,29.27
2018-11-07T03:01:21.669Z,24.07
2018-11-07T03:04:25.533Z,24.63
2018-11-07T03:07:29.466Z,22.43
2018-11-07T03:10:33.583Z,23.37
2018-11-07T03:13:37.615Z,23.30
2018-11-07T03:16:41.714Z,21.93
2018-11-07T03:19:45.753Z,22.03
2018-11-07T03:22:49.764Z,23.07
2018-11-07T03:25:53.657Z,27.67
2018-11-07T03:28:57.696Z,25.03
2018-11-07T03:32:01.663Z,23.50
2018-11-07T03:35:05.994Z,25.93
2018-11-07T03:38:10.086Z,25.27
2018-11-07T03:41:14.083Z,25.47
2018-11-07T03:44:18.159Z,24.50
2018-11-07T03:47:22.134Z,24.17
2018-11-07T03:50:26.376Z,23.87
2018-11-07T03:53:30.573Z,28.27
2018-11-07T03:56:34.451Z,26.63
2018-11-07T03:59:38.392Z,26.73
2018-11-07T04:02:42.379Z,25.70
2018-11-07T04:05:46.341Z,25.87
2018-11-07T04:08:50.300Z,29.43
2018-11-07T04:11:54.106Z,27.43
2018-11-07T04:14:58.032Z,27.20
2018-11-07T04:18:01.923Z,24.60
2018-11-07T04:21:05.799Z,25.43
2018-11-07T04:24:09.709Z,25.73
2018-11-07T04:27:13.787Z,25.50
2018-11-07T04:30:17.610Z,26.00
2018-11-07T04:33:21.519Z,25.83
2018-11-07T04:36:25.930Z,29.10
2018-11-07T04:39:29.837Z,26.67
2018-11-07T04:42:33.765Z,26.20
2018-11-07T04:45:37.698Z,26.17
2018-11-07T04:48:41.822Z,28.50
2018-11-07T04:51:45.728Z,24.70
2018-11-07T04:54:49.631Z,22.60
2018-11-07T04:57:53.630Z,26.30
2018-11-07T05:00:57.574Z,26.60
2018-11-07T05:04:04.420Z,28.40
2018-11-07T05:07:08.329Z,28.13
2018-11-07T05:10:12.886Z,25.20
2018-11-07T05:13:16.900Z,30.67
2018-11-07T05:16:20.789Z,24.50
2018-11-07T05:19:24.651Z,21.87
2018-11-07T05:22:28.743Z,20.43
2018-11-07T05:25:32.664Z,21.33
2018-11-07T05:28:36.574Z,18.80
2018-11-07T05:31:40.463Z,17.67
2018-11-07T05:34:45.635Z,18.63
2018-11-07T05:37:49.548Z,22.03
2018-11-07T05:40:53.374Z,18.30
2018-11-07T05:43:57.256Z,19.83
2018-11-07T05:47:01.114Z,21.37
2018-11-07T05:50:05.853Z,19.97
2018-11-07T05:53:09.731Z,19.23
2018-11-07T05:56:13.701Z,20.20
2018-11-07T05:59:17.718Z,20.93
2018-11-07T06:02:21.907Z,21.17
2018-11-07T06:05:25.851Z,20.63
2018-11-07T06:08:29.663Z,20.97
2018-11-07T06:11:33.521Z,20.27
2018-11-07T06:14:37.345Z,21.30
2018-11-07T06:17:41.291Z,19.17
2018-11-07T06:20:45.250Z,19.37
2018-11-07T06:23:49.101Z,18.33
2018-11-07T06:26:52.958Z,22.23
2018-11-07T06:29:56.863Z,20.30
2018-11-07T06:33:00.606Z,20.43
2018-11-07T06:36:04.590Z,20.40
2018-11-07T06:39:10.222Z,19.80
2018-11-07T06:42:14.173Z,21.00
2018-11-07T06:45:17.955Z,22.00
2018-11-07T06:48:21.864Z,22.87
2018-11-07T06:51:25.771Z,23.83
2018-11-07T06:54:29.618Z,21.00
2018-11-07T06:57:33.570Z,22.73
2018-11-07T07:00:37.368Z,22.63
2018-11-07T07:03:41.341Z,22.90
2018-11-07T07:06:45.225Z,21.77
2018-11-07T07:09:49.156Z,22.03
2018-11-07T07:12:53.056Z,25.00
2018-11-07T07:15:56.988Z,21.50
2018-11-07T07:19:00.992Z,20.93
2018-11-07T07:22:05.257Z,22.23
2018-11-07T07:25:10.146Z,19.87
2018-11-07T07:28:14.066Z,20.53
2018-11-07T07:31:17.971Z,22.43
2018-11-07T07:34:21.883Z,18.73
2018-11-07T07:37:25.749Z,19.90
2018-11-07T07:40:29.716Z,21.77
2018-11-07T07:43:33.568Z,22.80
2018-11-07T07:46:37.432Z,23.70
2018-11-07T07:49:41.380Z,27.97
2018-11-07T07:52:46.186Z,73.20
2018-11-07T07:55:50.218Z,81.87
2018-11-07T07:58:54.253Z,52.03
2018-11-07T08:01:58.333Z,69.00
2018-11-07T08:05:02.224Z,58.97
2018-11-07T08:08:06.636Z,62.97
2018-11-07T08:11:10.557Z,53.67
2018-11-07T08:14:14.529Z,40.13
2018-11-07T08:17:18.418Z,54.40
2018-11-07T08:20:22.421Z,59.53
2018-11-07T08:23:26.284Z,56.07
2018-11-07T08:26:30.247Z,44.43
2018-11-07T08:29:34.176Z,46.00
2018-11-07T08:32:38.213Z,46.07
2018-11-07T08:35:42.206Z,43.77
2018-11-07T08:38:46.295Z,45.00
2018-11-07T08:41:50.323Z,40.07
2018-11-07T08:44:54.241Z,40.90
2018-11-07T08:47:58.212Z,40.40
2018-11-07T08:51:01.991Z,39.07
2018-11-07T08:54:05.902Z,38.23
2018-11-07T08:57:11.829Z,36.97
2018-11-07T09:00:18.458Z,38.83
2018-11-07T09:03:22.341Z,39.40
2018-11-07T09:06:26.230Z,41.47
2018-11-07T09:09:30.149Z,40.80
2018-11-07T09:12:34.261Z,41.33
2018-11-07T09:15:38.125Z,41.43
2018-11-07T09:18:41.989Z,39.90
2018-11-07T09:21:45.931Z,40.37
2018-11-07T09:24:49.924Z,39.27
2018-11-07T09:27:53.801Z,40.67
2018-11-07T09:30:57.739Z,45.03
2018-11-07T09:34:01.652Z,41.03
2018-11-07T09:37:05.518Z,43.70
2018-11-07T09:40:12.887Z,45.83
2018-11-07T09:43:17.105Z,44.53
2018-11-07T09:46:21.003Z,41.70
2018-11-07T09:49:25.039Z,46.07
2018-11-07T09:52:28.914Z,46.10
2018-11-07T09:55:32.741Z,46.93
2018-11-07T09:58:36.764Z,45.67
2018-11-07T10:01:40.653Z,43.07
2018-11-07T10:04:44.648Z,43.30
2018-11-07T10:07:48.618Z,45.30
2018-11-07T10:10:52.529Z,43.00
2018-11-07T10:13:56.489Z,43.40
2018-11-07T10:17:00.302Z,44.60
2018-11-07T10:20:05.753Z,43.57
2018-11-07T10:23:09.663Z,45.07
2018-11-07T10:26:13.723Z,44.97
2018-11-07T10:29:17.900Z,48.27
2018-11-07T10:32:21.683Z,44.70
2018-11-07T10:35:26.158Z,44.00
2018-11-07T10:38:30.162Z,46.77
2018-11-07T10:41:33.991Z,50.03
2018-11-07T10:44:37.893Z,45.03
2018-11-07T10:47:43.091Z,47.87
2018-11-07T10:50:47.049Z,48.27
2018-11-07T10:53:50.898Z,48.27
2018-11-07T10:56:54.803Z,45.60
2018-11-07T10:59:58.656Z,45.07
2018-11-07T11:03:06.918Z,47.43
2018-11-07T11:06:10.733Z,43.63
2018-11-07T11:09:14.626Z,43.73
2018-11-07T11:12:18.452Z,43.90
2018-11-07T11:15:22.374Z,46.77
2018-11-07T11:18:26.270Z,44.10
2018-11-07T11:21:30.159Z,44.50
2018-11-07T11:24:34.034Z,41.80
2018-11-07T11:27:38.163Z,42.90
2018-11-07T11:30:42.027Z,43.53
2018-11-07T11:33:45.996Z,46.23
2018-11-07T11:36:49.795Z,42.67
2018-11-07T11:39:53.588Z,40.30
2018-11-07T11:42:57.433Z,42.97
2018-11-07T11:46:01.418Z,40.37
2018-11-07T11:49:06.126Z,41.93
2018-11-07T11:52:10.042Z,39.43
2018-11-07T11:55:13.966Z,37.63
2018-11-07T11:58:17.746Z,36.47
2018-11-07T12:01:21.752Z,34.63
2018-11-07T12:04:25.671Z,36.13
2018-11-07T12:07:29.667Z,34.60
2018-11-07T12:10:33.507Z,35.17
2018-11-07T12:13:37.307Z,34.60
2018-11-07T12:16:41.241Z,33.37
2018-11-07T12:19:45.130Z,34.00
2018-11-07T12:22:49.093Z,33.87
2018-11-07T12:25:53.004Z,34.00
2018-11-07T12:28:56.807Z,31.90
2018-11-07T12:32:01.299Z,31.33
2018-11-07T12:35:05.531Z,33.23
2018-11-07T12:38:09.431Z,29.93
2018-11-07T12:41:13.306Z,30.23
2018-11-07T12:44:17.128Z,29.33
2018-11-07T12:47:21.006Z,29.40
2018-11-07T12:50:25.604Z,29.57
2018-11-07T12:53:29.517Z,28.43
2018-11-07T12:56:33.519Z,28.33
2018-11-07T12:59:37.538Z,29.07
2018-11-07T13:02:41.610Z,30.27
2018-11-07T13:05:45.438Z,29.80
2018-11-07T13:08:49.272Z,29.20
2018-11-07T13:11:53.095Z,27.67
2018-11-07T13:14:57.101Z,29.23
2018-11-07T13:18:00.945Z,29.60
2018-11-07T13:21:05.458Z,28.17
2018-11-07T13:24:09.240Z,27.70
2018-11-07T13:27:13.112Z,28.13
2018-11-07T13:30:18.719Z,27.93
2018-11-07T13:33:22.624Z,27.73
2018-11-07T13:36:26.579Z,27.97
2018-11-07T13:39:30.413Z,27.83
2018-11-07T13:42:34.298Z,27.87
2018-11-07T13:45:38.089Z,26.17
2018-11-07T13:48:42.090Z,26.17
2018-11-07T13:51:46.118Z,26.37
2018-11-07T13:54:50.015Z,26.87
2018-11-07T13:57:53.845Z,26.50
2018-11-07T14:00:57.746Z,26.30
2018-11-07T14:04:01.657Z,25.70
2018-11-07T14:07:06.124Z,26.43
2018-11-07T14:10:13.272Z,26.03
2018-11-07T14:13:17.279Z,26.03
2018-11-07T14:16:21.223Z,26.30
2018-11-07T14:19:24.999Z,26.43
2018-11-07T14:22:28.817Z,24.23
2018-11-07T14:25:32.728Z,24.83
2018-11-07T14:28:36.711Z,25.90
2018-11-07T14:31:40.666Z,25.83
2018-11-07T14:34:44.589Z,25.33
2018-11-07T14:37:48.479Z,26.13
2018-11-07T14:40:52.405Z,26.43
2018-11-07T14:43:56.562Z,26.17
2018-11-07T14:47:00.353Z,25.83
2018-11-07T14:50:05.217Z,23.80
2018-11-07T14:53:09.157Z,23.13
2018-11-07T14:56:13.213Z,24.43
2018-11-07T14:59:17.037Z,25.20
2018-11-07T15:02:21.062Z,24.80
2018-11-07T15:05:25.085Z,25.30
2018-11-07T15:08:28.966Z,21.40
2018-11-07T15:11:33.053Z,21.60
2018-11-07T15:14:36.977Z,23.53
2018-11-07T15:17:40.856Z,23.70
2018-11-07T15:20:44.689Z,24.37
2018-11-07T15:23:48.611Z,23.57
2018-11-07T15:26:52.836Z,23.93
2018-11-07T15:29:56.687Z,23.03
2018-11-07T15:33:00.653Z,22.83
2018-11-07T15:36:04.663Z,22.87
2018-11-07T15:39:10.081Z,23.10
2018-11-07T15:42:13.941Z,21.13
2018-11-07T15:45:19.345Z,19.00
2018-11-07T15:48:23.189Z,17.10
2018-11-07T15:51:32.495Z,19.73
2018-11-07T15:54:36.593Z,23.90
2018-11-07T15:57:40.505Z,22.63
2018-11-07T16:00:44.368Z,17.70
2018-11-07T16:03:48.292Z,16.33
2018-11-07T16:06:52.184Z,14.67
2018-11-07T16:09:56.109Z,14.20
2018-11-07T16:13:00.080Z,17.00
2018-11-07T16:16:03.932Z,16.30
2018-11-07T16:19:07.794Z,14.30
2018-11-07T16:22:11.656Z,14.30
2018-11-07T16:25:15.602Z,11.87
2018-11-07T16:28:19.523Z,12.07
2018-11-07T16:31:23.399Z,13.87
2018-11-07T16:34:27.203Z,13.23
2018-11-07T16:37:31.139Z,21.97
2018-11-07T16:40:35.326Z,20.63
2018-11-07T16:43:39.419Z,9.67
2018-11-07T16:46:43.337Z,10.30
2018-11-07T16:49:47.248Z,10.17
2018-11-07T16:52:51.104Z,13.20
2018-11-07T16:55:55.137Z,14.30
2018-11-07T16:58:59.057Z,11.70
2018-11-07T17:02:02.936Z,15.97
2018-11-07T17:05:06.947Z,16.63
2018-11-07T17:08:10.796Z,22.43
2018-11-07T17:11:14.719Z,21.40
2018-11-07T17:14:18.687Z,9.07
2018-11-07T17:17:22.577Z,11.70
2018-11-07T17:20:26.373Z,10.03
2018-11-07T17:23:30.348Z,13.60
2018-11-07T17:26:34.303Z,15.20
2018-11-07T17:29:38.166Z,22.77
2018-11-07T17:32:42.079Z,16.83
2018-11-07T17:35:45.895Z,14.20
2018-11-07T17:38:49.774Z,14.10
2018-11-07T17:41:53.721Z,15.30
2018-11-07T17:44:57.549Z,10.50
2018-11-07T17:48:01.609Z,13.50
2018-11-07T17:51:06.048Z,12.53
2018-11-07T17:54:09.861Z,9.97
2018-11-07T17:57:13.771Z,11.63
2018-11-07T18:00:19.236Z,11.97
2018-11-07T18:03:23.074Z,11.07
2018-11-07T18:06:26.950Z,11.63
2018-11-07T18:09:30.853Z,10.20
2018-11-07T18:12:34.698Z,8.80
2018-11-07T18:15:38.627Z,11.10
2018-11-07T18:18:43.283Z,13.27
2018-11-07T18:21:47.142Z,9.90
2018-11-07T18:24:51.097Z,11.17
2018-11-07T18:27:54.994Z,8.77
2018-11-07T18:30:58.832Z,12.40
2018-11-07T18:34:02.821Z,10.10
2018-11-07T18:37:07.887Z,15.23
2018-11-07T18:40:14.265Z,12.50
2018-11-07T18:43:18.301Z,14.33
2018-11-07T18:46:22.113Z,15.33
2018-11-07T18:49:26.055Z,13.00
2018-11-07T18:52:29.981Z,11.00
2018-11-07T18:55:33.889Z,10.43
2018-11-07T18:58:38.097Z,11.43
2018-11-07T19:01:41.880Z,13.03
2018-11-07T19:04:45.895Z,11.80
2018-11-07T19:07:49.807Z,9.10
2018-11-07T19:10:53.644Z,9.10
2018-11-07T19:13:57.539Z,9.87
2018-11-07T19:17:01.658Z,11.30
2018-11-07T19:20:06.304Z,9.87
2018-11-07T19:23:10.198Z,7.87
2018-11-07T19:26:14.005Z,10.40
2018-11-07T19:29:17.964Z,12.47
2018-11-07T19:32:21.808Z,7.00
2018-11-07T19:35:25.666Z,7.40
2018-11-07T19:38:29.524Z,8.17
2018-11-07T19:41:33.572Z,10.70
2018-11-07T19:44:37.401Z,10.37
2018-11-07T19:47:41.333Z,9.27
2018-11-07T19:50:45.203Z,10.17
2018-11-07T19:53:49.045Z,10.37
2018-11-07T19:56:53.337Z,9.70
2018-11-07T19:59:57.301Z,10.90
2018-11-07T20:03:01.146Z,10.10
2018-11-07T20:06:05.088Z,9.40
2018-11-07T20:09:10.532Z,9.10
2018-11-07T20:12:14.418Z,11.50
2018-11-07T20:15:19.335Z,11.27
2018-11-07T20:18:23.244Z,11.40
2018-11-07T20:21:27.205Z,10.83
2018-11-07T20:24:31.078Z,15.03
2018-11-07T20:27:34.922Z,11.30
2018-11-07T20:30:38.857Z,14.90
2018-11-07T20:33:42.854Z,10.83
2018-11-07T20:36:46.767Z,11.93
2018-11-07T20:39:51.083Z,15.20
2018-11-07T20:42:54.947Z,11.90
2018-11-07T20:45:58.917Z,10.83
2018-11-07T20:49:02.951Z,12.63
2018-11-07T20:52:07.084Z,11.20
2018-11-07T20:55:12.106Z,10.43
2018-11-07T20:58:16.101Z,14.80
2018-11-07T21:01:20.013Z,10.97
2018-11-07T21:04:23.940Z,12.60
2018-11-07T21:07:27.859Z,13.57
2018-11-07T21:10:31.695Z,16.73
2018-11-07T21:13:35.555Z,10.53
2018-11-07T21:16:39.541Z,10.67
2018-11-07T21:19:43.351Z,13.03
2018-11-07T21:22:47.272Z,11.83
2018-11-07T21:25:51.145Z,12.63
2018-11-07T21:28:55.019Z,17.90
2018-11-07T21:31:58.875Z,15.33
2018-11-07T21:35:02.973Z,16.90
2018-11-07T21:38:06.909Z,13.47
2018-11-07T21:41:10.890Z,15.97
2018-11-07T21:44:14.751Z,14.93
2018-11-07T21:47:19.112Z,14.30
2018-11-07T21:50:23.027Z,18.07
2018-11-07T21:53:26.939Z,19.17
2018-11-07T21:56:30.822Z,19.77
2018-11-07T21:59:34.648Z,19.47
2018-11-07T22:02:38.590Z,18.40
2018-11-07T22:05:42.454Z,15.07
2018-11-07T22:08:46.403Z,15.20
2018-11-07T22:11:50.266Z,16.77
2018-11-07T22:14:54.226Z,11.47
2018-11-07T22:17:58.151Z,14.77
2018-11-07T22:21:02.257Z,15.73
2018-11-07T22:24:06.263Z,16.03
2018-11-07T22:27:10.286Z,16.77
2018-11-07T22:30:15.446Z,17.00
2018-11-07T22:33:19.356Z,15.20
2018-11-07T22:36:23.236Z,17.00
2018-11-07T22:39:27.167Z,13.53
2018-11-07T22:42:30.992Z,15.20
2018-11-07T22:45:34.919Z,18.73
2018-11-07T22:48:38.800Z,14.53
2018-11-07T22:51:42.659Z,15.10
2018-11-07T22:54:46.669Z,15.63
2018-11-07T22:57:50.602Z,15.03
2018-11-07T23:00:58.714Z,13.80
2018-11-07T23:04:02.628Z,15.00
2018-11-07T23:07:06.626Z,13.97
2018-11-07T23:10:10.648Z,14.40
2018-11-07T23:13:14.523Z,16.00
2018-11-07T23:16:18.469Z,15.67
2018-11-07T23:19:22.372Z,15.23
2018-11-07T23:22:26.399Z,16.13
2018-11-07T23:25:30.377Z,14.60
2018-11-07T23:28:34.289Z,14.63
2018-11-07T23:31:38.172Z,15.00
2018-11-07T23:34:42.116Z,14.27
2018-11-07T23:37:46.166Z,14.43
2018-11-07T23:40:50.147Z,17.17
2018-11-07T23:43:54.068Z,16.87
2018-11-07T23:46:58.067Z,15.90
2018-11-07T23:50:02.283Z,16.97
2018-11-07T23:53:06.707Z,17.80
2018-11-07T23:56:10.725Z,20.00
2018-11-07T23:59:14.715Z,23.00
